Elkhart, IN

6:06 AM EDT on May 26, 2015 (GMT -0400)
Elkhart County West | | Change Station
CLOSE
Current Station
Personal Weather Station
Location: Elkhart, IN
Elevation: 758 ft
Nearby Weather Stations

Elev 758 ft 41.71 °N, 86.04 °W | Updated 2 seconds ago

Mostly Cloudy
Mostly Cloudy
66.9 °F
Feels Like 66.9 °F
N
4.7
Wind Variable Wind from SSE
Gusts 8.3 mph

Today
High -- | Low -- °F
--% Chance of Precip.
Yesterday
High -- | Low -- °F
Precip. -- in
6:15 AM 9:07 PM
First Quarter, 57% visible
Pressure 30.00 in
Visibility 7.0 miles
Clouds Overcast 800 ft
Dew Point 65 °F
Humidity 93%
Rainfall 0.00 in
Snow Depth Not available.
UV 0 out of 12
Pollen 9.70 out of 12
Air Quality Not available.
Flu Activity Sporadic
METAR KGSH 260953Z AUTO 18006KT 7SM OVC008 18/17 A3001 RMK AO2 CIG 007V012 SLP159 T01830172 TSNO

More Conditions Fewer Conditions

Pressure 30.00 in
Visibility 7.0 miles
Clouds Overcast 800 ft
Dew Point 65 °F
Humidity 93%
Rainfall 0.00 in
Snow Depth Not available.
UV 0 out of 12
Pollen 9.70 out of 12
Air Quality Not available.
Flu Activity Sporadic
METAR KGSH 260953Z AUTO 18006KT 7SM OVC008 18/17 A3001 RMK AO2 CIG 007V012 SLP159 T01830172 TSNO

More Conditions Fewer Conditions

10-Day Weather Forecast

Almanac

Astronomy

May. 26, 2015 Rise Set
Actual Time
Civil Twilight
Nautical Twilight
Astronomical Twilight
Moon
Length of Visible Light
Length of Day
Tomorrow will be .
, % of the Moon is Illuminated

Today's Extremes

State Highs State Lows

Community

WunderPhotos

Upload Photos

1,824,305 photos uploaded!

WunderBlogs® & News

Nearby

Air Quality

  Air Quality AQ Index Pollutant
Not available.

Snow Depth

Station Depth Elevation

Earthquake Activity

City Distance Mag. Time & Date
Minimum magnitude displayed is 2.5.

Coastal Water Temperatures

Place Temperature

Stations

Nearby Weather Stations

Station Location Temp. Windchill Dew Point Humidity Wind Precip. Elev Updated Type